sensor_id;sensor_type;location;lat;lon;timestamp;P1;durP1;ratioP1;P2;durP2;ratioP2
50417;SDS011;36346;48.280;14.292;2022-10-15T00:01:35;14.12;;;14.12;;
50417;SDS011;36346;48.280;14.292;2022-10-15T00:04:04;14.38;;;14.30;;
50417;SDS011;36346;48.280;14.292;2022-10-15T00:06:32;14.62;;;14.62;;
50417;SDS011;36346;48.280;14.292;2022-10-15T00:09:02;14.86;;;14.86;;
50417;SDS011;36346;48.280;14.292;2022-10-15T00:11:31;13.91;;;13.90;;
50417;SDS011;36346;48.280;14.292;2022-10-15T00:13:59;14.47;;;14.47;;
50417;SDS011;36346;48.280;14.292;2022-10-15T00:16:27;14.71;;;14.70;;
50417;SDS011;36346;48.280;14.292;2022-10-15T00:18:56;14.26;;;14.26;;
50417;SDS011;36346;48.280;14.292;2022-10-15T00:21:25;13.85;;;13.85;;
50417;SDS011;36346;48.280;14.292;2022-10-15T00:23:53;13.53;;;13.43;;
50417;SDS011;36346;48.280;14.292;2022-10-15T00:26:23;13.28;;;13.28;;
50417;SDS011;36346;48.280;14.292;2022-10-15T00:28:54;12.91;;;12.91;;
50417;SDS011;36346;48.280;14.292;2022-10-15T00:31:27;12.96;;;12.96;;
50417;SDS011;36346;48.280;14.292;2022-10-15T00:33:57;12.71;;;12.71;;
50417;SDS011;36346;48.280;14.292;2022-10-15T00:36:27;12.47;;;12.47;;
50417;SDS011;36346;48.280;14.292;2022-10-15T00:38:57;12.42;;;12.42;;
50417;SDS011;36346;48.280;14.292;2022-10-15T00:41:36;12.23;;;12.23;;
50417;SDS011;36346;48.280;14.292;2022-10-15T00:49:50;11.39;;;11.39;;
50417;SDS011;36346;48.280;14.292;2022-10-15T00:52:22;11.95;;;11.95;;
50417;SDS011;36346;48.280;14.292;2022-10-15T00:55:45;11.99;;;11.91;;
50417;SDS011;36346;48.280;14.292;2022-10-15T00:58:00;11.77;;;11.77;;
50417;SDS011;36346;48.280;14.292;2022-10-15T01:00:33;11.99;;;11.99;;
50417;SDS011;36346;48.280;14.292;2022-10-15T01:03:01;11.77;;;11.77;;
50417;SDS011;36346;48.280;14.292;2022-10-15T01:05:29;12.07;;;12.07;;
50417;SDS011;36346;48.280;14.292;2022-10-15T01:07:58;11.42;;;11.42;;
50417;SDS011;36346;48.280;14.292;2022-10-15T01:13:22;11.37;;;11.35;;
50417;SDS011;36346;48.280;14.292;2022-10-15T01:16:18;11.02;;;11.02;;
50417;SDS011;36346;48.280;14.292;2022-10-15T01:21:37;11.42;;;11.42;;
50417;SDS011;36346;48.280;14.292;2022-10-15T01:38:06;10.97;;;10.97;;
50417;SDS011;36346;48.280;14.292;2022-10-15T01:43:36;10.51;;;10.51;;
50417;SDS011;36346;48.280;14.292;2022-10-15T01:49:17;11.44;;;11.44;;
50417;SDS011;36346;48.280;14.292;2022-10-15T01:51:49;10.75;;;10.75;;
50417;SDS011;36346;48.280;14.292;2022-10-15T01:54:18;10.84;;;10.82;;
50417;SDS011;36346;48.280;14.292;2022-10-15T01:56:52;11.04;;;11.04;;
50417;SDS011;36346;48.280;14.292;2022-10-15T01:59:23;10.58;;;10.58;;
50417;SDS011;36346;48.280;14.292;2022-10-15T02:01:54;10.86;;;10.86;;
50417;SDS011;36346;48.280;14.292;2022-10-15T02:04:25;10.60;;;10.60;;
50417;SDS011;36346;48.280;14.292;2022-10-15T02:07:09;10.48;;;10.48;;
50417;SDS011;36346;48.280;14.292;2022-10-15T02:09:59;10.47;;;10.47;;
50417;SDS011;36346;48.280;14.292;2022-10-15T02:12:36;10.83;;;10.83;;
50417;SDS011;36346;48.280;14.292;2022-10-15T02:15:30;10.81;;;10.81;;
50417;SDS011;36346;48.280;14.292;2022-10-15T02:21:04;10.74;;;10.74;;
50417;SDS011;36346;48.280;14.292;2022-10-15T02:26:14;10.51;;;10.51;;
50417;SDS011;36346;48.280;14.292;2022-10-15T02:28:45;10.94;;;10.94;;
50417;SDS011;36346;48.280;14.292;2022-10-15T02:31:18;11.20;;;11.19;;
50417;SDS011;36346;48.280;14.292;2022-10-15T02:33:50;11.53;;;11.53;;
50417;SDS011;36346;48.280;14.292;2022-10-15T02:36:22;11.67;;;11.62;;
50417;SDS011;36346;48.280;14.292;2022-10-15T02:38:51;11.28;;;11.28;;
50417;SDS011;36346;48.280;14.292;2022-10-15T02:41:22;11.66;;;11.66;;
50417;SDS011;36346;48.280;14.292;2022-10-15T02:43:50;12.00;;;11.99;;
50417;SDS011;36346;48.280;14.292;2022-10-15T02:46:18;12.14;;;12.14;;
50417;SDS011;36346;48.280;14.292;2022-10-15T02:48:47;12.92;;;12.92;;
50417;SDS011;36346;48.280;14.292;2022-10-15T02:51:17;12.47;;;12.47;;
50417;SDS011;36346;48.280;14.292;2022-10-15T02:53:45;12.94;;;12.94;;
50417;SDS011;36346;48.280;14.292;2022-10-15T02:56:13;13.02;;;13.01;;
50417;SDS011;36346;48.280;14.292;2022-10-15T02:58:43;13.04;;;13.03;;
50417;SDS011;36346;48.280;14.292;2022-10-15T03:01:11;12.85;;;12.85;;
50417;SDS011;36346;48.280;14.292;2022-10-15T03:03:39;12.66;;;12.66;;
50417;SDS011;36346;48.280;14.292;2022-10-15T03:06:07;13.09;;;13.06;;
50417;SDS011;36346;48.280;14.292;2022-10-15T03:08:35;12.67;;;12.67;;
50417;SDS011;36346;48.280;14.292;2022-10-15T03:11:04;12.74;;;12.74;;
50417;SDS011;36346;48.280;14.292;2022-10-15T03:13:34;12.62;;;12.62;;
50417;SDS011;36346;48.280;14.292;2022-10-15T03:16:03;12.51;;;12.51;;
50417;SDS011;36346;48.280;14.292;2022-10-15T03:18:33;12.18;;;12.18;;
50417;SDS011;36346;48.280;14.292;2022-10-15T03:21:08;11.57;;;11.57;;
50417;SDS011;36346;48.280;14.292;2022-10-15T03:23:37;11.67;;;11.67;;
50417;SDS011;36346;48.280;14.292;2022-10-15T03:26:12;10.39;;;10.39;;
50417;SDS011;36346;48.280;14.292;2022-10-15T03:28:40;9.88;;;9.88;;
50417;SDS011;36346;48.280;14.292;2022-10-15T03:31:11;9.73;;;9.73;;
50417;SDS011;36346;48.280;14.292;2022-10-15T03:33:45;9.32;;;9.32;;
50417;SDS011;36346;48.280;14.292;2022-10-15T03:36:13;10.02;;;10.02;;
50417;SDS011;36346;48.280;14.292;2022-10-15T03:38:41;9.81;;;9.81;;
50417;SDS011;36346;48.280;14.292;2022-10-15T03:41:13;9.93;;;9.93;;
50417;SDS011;36346;48.280;14.292;2022-10-15T03:43:42;9.39;;;9.39;;
50417;SDS011;36346;48.280;14.292;2022-10-15T03:46:11;9.36;;;9.36;;
50417;SDS011;36346;48.280;14.292;2022-10-15T03:48:42;9.40;;;9.40;;
50417;SDS011;36346;48.280;14.292;2022-10-15T03:51:13;9.42;;;9.42;;
50417;SDS011;36346;48.280;14.292;2022-10-15T03:53:50;9.42;;;9.42;;
50417;SDS011;36346;48.280;14.292;2022-10-15T03:56:18;9.21;;;9.21;;
50417;SDS011;36346;48.280;14.292;2022-10-15T03:58:47;8.53;;;8.53;;
50417;SDS011;36346;48.280;14.292;2022-10-15T04:01:16;8.95;;;8.95;;
50417;SDS011;36346;48.280;14.292;2022-10-15T04:03:45;8.93;;;8.93;;
50417;SDS011;36346;48.280;14.292;2022-10-15T04:06:16;9.07;;;9.07;;
50417;SDS011;36346;48.280;14.292;2022-10-15T04:08:45;8.98;;;8.98;;
50417;SDS011;36346;48.280;14.292;2022-10-15T04:11:23;9.09;;;9.09;;
50417;SDS011;36346;48.280;14.292;2022-10-15T04:14:03;9.54;;;9.54;;
50417;SDS011;36346;48.280;14.292;2022-10-15T04:16:32;9.59;;;9.59;;
50417;SDS011;36346;48.280;14.292;2022-10-15T04:19:08;9.23;;;9.23;;
50417;SDS011;36346;48.280;14.292;2022-10-15T04:21:39;8.88;;;8.88;;
50417;SDS011;36346;48.280;14.292;2022-10-15T04:24:13;9.51;;;9.51;;
50417;SDS011;36346;48.280;14.292;2022-10-15T04:26:41;9.78;;;9.78;;
50417;SDS011;36346;48.280;14.292;2022-10-15T04:29:09;9.83;;;9.83;;
50417;SDS011;36346;48.280;14.292;2022-10-15T04:31:37;9.67;;;9.67;;
50417;SDS011;36346;48.280;14.292;2022-10-15T04:34:05;9.77;;;9.77;;
50417;SDS011;36346;48.280;14.292;2022-10-15T04:36:33;10.04;;;10.04;;
50417;SDS011;36346;48.280;14.292;2022-10-15T04:39:13;9.91;;;9.91;;
50417;SDS011;36346;48.280;14.292;2022-10-15T04:41:44;9.92;;;9.92;;
50417;SDS011;36346;48.280;14.292;2022-10-15T04:44:20;10.07;;;10.07;;
50417;SDS011;36346;48.280;14.292;2022-10-15T04:46:54;10.14;;;10.14;;
50417;SDS011;36346;48.280;14.292;2022-10-15T04:49:33;10.03;;;10.03;;
50417;SDS011;36346;48.280;14.292;2022-10-15T04:52:08;11.76;;;11.76;;
50417;SDS011;36346;48.280;14.292;2022-10-15T04:54:52;11.48;;;11.47;;
50417;SDS011;36346;48.280;14.292;2022-10-15T04:57:20;11.01;;;11.01;;
50417;SDS011;36346;48.280;14.292;2022-10-15T04:59:49;11.26;;;11.25;;
50417;SDS011;36346;48.280;14.292;2022-10-15T05:02:49;10.52;;;10.52;;
50417;SDS011;36346;48.280;14.292;2022-10-15T05:05:25;11.19;;;11.19;;
50417;SDS011;36346;48.280;14.292;2022-10-15T05:07:58;11.47;;;11.47;;
50417;SDS011;36346;48.280;14.292;2022-10-15T05:10:33;10.99;;;10.99;;
50417;SDS011;36346;48.280;14.292;2022-10-15T05:13:05;10.71;;;10.71;;
50417;SDS011;36346;48.280;14.292;2022-10-15T05:15:36;10.75;;;10.75;;
50417;SDS011;36346;48.280;14.292;2022-10-15T05:18:07;10.70;;;10.70;;
50417;SDS011;36346;48.280;14.292;2022-10-15T05:20:44;10.47;;;10.47;;
50417;SDS011;36346;48.280;14.292;2022-10-15T05:23:16;10.41;;;10.41;;
50417;SDS011;36346;48.280;14.292;2022-10-15T05:25:53;10.27;;;10.27;;
50417;SDS011;36346;48.280;14.292;2022-10-15T05:28:24;10.74;;;10.74;;
50417;SDS011;36346;48.280;14.292;2022-10-15T05:30:53;10.33;;;10.33;;
50417;SDS011;36346;48.280;14.292;2022-10-15T05:33:21;10.44;;;10.42;;
50417;SDS011;36346;48.280;14.292;2022-10-15T05:35:49;10.59;;;10.59;;
50417;SDS011;36346;48.280;14.292;2022-10-15T05:38:20;10.57;;;10.57;;
50417;SDS011;36346;48.280;14.292;2022-10-15T05:40:48;10.60;;;10.60;;
50417;SDS011;36346;48.280;14.292;2022-10-15T05:43:20;11.11;;;11.11;;
50417;SDS011;36346;48.280;14.292;2022-10-15T05:45:48;10.99;;;10.99;;
50417;SDS011;36346;48.280;14.292;2022-10-15T05:48:20;11.87;;;11.87;;
50417;SDS011;36346;48.280;14.292;2022-10-15T05:50:48;12.41;;;12.41;;
50417;SDS011;36346;48.280;14.292;2022-10-15T05:53:22;12.08;;;12.08;;
50417;SDS011;36346;48.280;14.292;2022-10-15T05:56:06;12.04;;;12.04;;
50417;SDS011;36346;48.280;14.292;2022-10-15T05:58:36;11.66;;;11.66;;
50417;SDS011;36346;48.280;14.292;2022-10-15T06:01:07;11.74;;;11.74;;
50417;SDS011;36346;48.280;14.292;2022-10-15T06:03:41;11.96;;;11.96;;
50417;SDS011;36346;48.280;14.292;2022-10-15T06:06:13;12.63;;;12.63;;
50417;SDS011;36346;48.280;14.292;2022-10-15T06:08:42;12.81;;;12.80;;
50417;SDS011;36346;48.280;14.292;2022-10-15T06:11:11;13.34;;;13.34;;
50417;SDS011;36346;48.280;14.292;2022-10-15T06:13:39;13.32;;;13.32;;
50417;SDS011;36346;48.280;14.292;2022-10-15T06:16:08;13.43;;;13.43;;
50417;SDS011;36346;48.280;14.292;2022-10-15T06:18:37;13.41;;;13.41;;
50417;SDS011;36346;48.280;14.292;2022-10-15T06:21:06;13.28;;;13.28;;
50417;SDS011;36346;48.280;14.292;2022-10-15T06:23:36;14.04;;;14.04;;
50417;SDS011;36346;48.280;14.292;2022-10-15T06:26:04;14.56;;;14.56;;
50417;SDS011;36346;48.280;14.292;2022-10-15T06:28:34;14.53;;;14.53;;
50417;SDS011;36346;48.280;14.292;2022-10-15T06:31:03;14.75;;;14.75;;
50417;SDS011;36346;48.280;14.292;2022-10-15T06:33:32;14.55;;;14.55;;
50417;SDS011;36346;48.280;14.292;2022-10-15T06:36:09;14.56;;;14.56;;
50417;SDS011;36346;48.280;14.292;2022-10-15T06:38:37;14.38;;;14.37;;
50417;SDS011;36346;48.280;14.292;2022-10-15T06:41:06;13.95;;;13.95;;
50417;SDS011;36346;48.280;14.292;2022-10-15T06:43:37;14.18;;;14.18;;
50417;SDS011;36346;48.280;14.292;2022-10-15T06:46:05;14.40;;;14.40;;
50417;SDS011;36346;48.280;14.292;2022-10-15T06:48:33;14.57;;;14.57;;
50417;SDS011;36346;48.280;14.292;2022-10-15T06:51:02;14.72;;;14.71;;
50417;SDS011;36346;48.280;14.292;2022-10-15T06:53:31;14.79;;;14.75;;
50417;SDS011;36346;48.280;14.292;2022-10-15T06:56:00;13.65;;;13.63;;
50417;SDS011;36346;48.280;14.292;2022-10-15T06:58:33;14.86;;;14.67;;
50417;SDS011;36346;48.280;14.292;2022-10-15T07:01:01;14.89;;;14.81;;
50417;SDS011;36346;48.280;14.292;2022-10-15T07:03:31;15.54;;;15.53;;
50417;SDS011;36346;48.280;14.292;2022-10-15T07:06:02;15.45;;;15.44;;
50417;SDS011;36346;48.280;14.292;2022-10-15T07:08:32;15.28;;;15.28;;
50417;SDS011;36346;48.280;14.292;2022-10-15T07:11:01;15.95;;;15.93;;
50417;SDS011;36346;48.280;14.292;2022-10-15T07:13:31;16.26;;;16.19;;
50417;SDS011;36346;48.280;14.292;2022-10-15T07:16:04;16.14;;;16.12;;
50417;SDS011;36346;48.280;14.292;2022-10-15T07:18:33;16.15;;;16.15;;
50417;SDS011;36346;48.280;14.292;2022-10-15T07:21:03;16.78;;;16.77;;
50417;SDS011;36346;48.280;14.292;2022-10-15T07:23:32;16.57;;;16.57;;
50417;SDS011;36346;48.280;14.292;2022-10-15T07:26:00;16.10;;;16.10;;
50417;SDS011;36346;48.280;14.292;2022-10-15T07:28:28;17.07;;;17.07;;
50417;SDS011;36346;48.280;14.292;2022-10-15T07:31:04;15.82;;;15.82;;
50417;SDS011;36346;48.280;14.292;2022-10-15T07:33:33;16.55;;;16.55;;
50417;SDS011;36346;48.280;14.292;2022-10-15T07:36:06;16.35;;;16.35;;
50417;SDS011;36346;48.280;14.292;2022-10-15T07:38:36;15.77;;;15.76;;
50417;SDS011;36346;48.280;14.292;2022-10-15T07:41:04;16.06;;;16.06;;
50417;SDS011;36346;48.280;14.292;2022-10-15T07:43:41;16.06;;;16.06;;
50417;SDS011;36346;48.280;14.292;2022-10-15T07:46:10;16.69;;;16.69;;
50417;SDS011;36346;48.280;14.292;2022-10-15T07:48:38;16.28;;;16.27;;
50417;SDS011;36346;48.280;14.292;2022-10-15T07:51:06;16.51;;;16.46;;
50417;SDS011;36346;48.280;14.292;2022-10-15T07:53:35;16.75;;;16.66;;
50417;SDS011;36346;48.280;14.292;2022-10-15T07:56:04;16.95;;;16.95;;
50417;SDS011;36346;48.280;14.292;2022-10-15T07:58:34;17.11;;;17.10;;
50417;SDS011;36346;48.280;14.292;2022-10-15T08:01:05;16.95;;;16.95;;
50417;SDS011;36346;48.280;14.292;2022-10-15T08:03:35;17.35;;;17.29;;
50417;SDS011;36346;48.280;14.292;2022-10-15T08:06:10;17.50;;;17.50;;
50417;SDS011;36346;48.280;14.292;2022-10-15T08:08:39;17.67;;;17.63;;
50417;SDS011;36346;48.280;14.292;2022-10-15T08:11:09;17.69;;;17.42;;
50417;SDS011;36346;48.280;14.292;2022-10-15T08:13:40;17.86;;;17.82;;
50417;SDS011;36346;48.280;14.292;2022-10-15T08:16:13;17.83;;;17.83;;
50417;SDS011;36346;48.280;14.292;2022-10-15T08:18:43;18.65;;;18.64;;
50417;SDS011;36346;48.280;14.292;2022-10-15T08:21:12;18.92;;;18.92;;
50417;SDS011;36346;48.280;14.292;2022-10-15T08:23:45;18.88;;;18.86;;
50417;SDS011;36346;48.280;14.292;2022-10-15T08:26:33;18.35;;;18.27;;
50417;SDS011;36346;48.280;14.292;2022-10-15T08:29:01;17.39;;;17.39;;
50417;SDS011;36346;48.280;14.292;2022-10-15T08:31:31;19.09;;;19.05;;
50417;SDS011;36346;48.280;14.292;2022-10-15T08:34:00;20.38;;;20.31;;
50417;SDS011;36346;48.280;14.292;2022-10-15T08:36:29;19.87;;;19.84;;
50417;SDS011;36346;48.280;14.292;2022-10-15T08:39:00;19.63;;;19.62;;
50417;SDS011;36346;48.280;14.292;2022-10-15T08:41:42;19.68;;;19.68;;
50417;SDS011;36346;48.280;14.292;2022-10-15T08:44:21;20.68;;;20.65;;
50417;SDS011;36346;48.280;14.292;2022-10-15T08:47:00;20.10;;;20.07;;
50417;SDS011;36346;48.280;14.292;2022-10-15T08:49:44;19.27;;;19.18;;
50417;SDS011;36346;48.280;14.292;2022-10-15T08:54:56;18.71;;;18.70;;
50417;SDS011;36346;48.280;14.292;2022-10-15T09:00:22;19.70;;;19.54;;
50417;SDS011;36346;48.280;14.292;2022-10-15T09:02:57;21.27;;;21.16;;
50417;SDS011;36346;48.280;14.292;2022-10-15T09:05:38;24.41;;;24.23;;
50417;SDS011;36346;48.280;14.292;2022-10-15T09:14:08;17.17;;;17.11;;
50417;SDS011;36346;48.280;14.292;2022-10-15T09:16:47;15.22;;;15.21;;
50417;SDS011;36346;48.280;14.292;2022-10-15T09:19:18;15.24;;;15.20;;
50417;SDS011;36346;48.280;14.292;2022-10-15T09:21:49;15.04;;;14.90;;
50417;SDS011;36346;48.280;14.292;2022-10-15T09:24:24;14.43;;;14.37;;
50417;SDS011;36346;48.280;14.292;2022-10-15T09:26:59;13.89;;;13.82;;
50417;SDS011;36346;48.280;14.292;2022-10-15T09:35:15;13.83;;;13.80;;
50417;SDS011;36346;48.280;14.292;2022-10-15T09:44:03;13.65;;;13.61;;
50417;SDS011;36346;48.280;14.292;2022-10-15T09:46:47;14.48;;;14.44;;
50417;SDS011;36346;48.280;14.292;2022-10-15T09:49:18;14.82;;;14.76;;
50417;SDS011;36346;48.280;14.292;2022-10-15T09:52:03;14.71;;;14.68;;
50417;SDS011;36346;48.280;14.292;2022-10-15T09:57:10;13.43;;;13.33;;
50417;SDS011;36346;48.280;14.292;2022-10-15T09:59:55;14.16;;;14.16;;
50417;SDS011;36346;48.280;14.292;2022-10-15T10:02:28;14.18;;;14.18;;
50417;SDS011;36346;48.280;14.292;2022-10-15T10:04:57;14.65;;;14.65;;
50417;SDS011;36346;48.280;14.292;2022-10-15T10:08:21;16.37;;;16.34;;
50417;SDS011;36346;48.280;14.292;2022-10-15T10:10:55;15.39;;;15.39;;
50417;SDS011;36346;48.280;14.292;2022-10-15T10:13:29;15.10;;;15.06;;
50417;SDS011;36346;48.280;14.292;2022-10-15T10:16:02;14.76;;;14.76;;
50417;SDS011;36346;48.280;14.292;2022-10-15T10:18:36;14.23;;;14.20;;
50417;SDS011;36346;48.280;14.292;2022-10-15T10:21:21;14.99;;;14.99;;
50417;SDS011;36346;48.280;14.292;2022-10-15T10:24:24;13.89;;;13.85;;
50417;SDS011;36346;48.280;14.292;2022-10-15T10:29:59;13.36;;;13.34;;
50417;SDS011;36346;48.280;14.292;2022-10-15T10:32:34;12.72;;;12.72;;
50417;SDS011;36346;48.280;14.292;2022-10-15T10:35:04;11.84;;;11.84;;
50417;SDS011;36346;48.280;14.292;2022-10-15T10:37:41;11.43;;;11.43;;
50417;SDS011;36346;48.280;14.292;2022-10-15T10:40:29;8.65;;;8.65;;
50417;SDS011;36346;48.280;14.292;2022-10-15T10:45:51;7.71;;;7.71;;
50417;SDS011;36346;48.280;14.292;2022-10-15T10:48:22;7.27;;;7.27;;
50417;SDS011;36346;48.280;14.292;2022-10-15T10:53:59;6.74;;;6.74;;
50417;SDS011;36346;48.280;14.292;2022-10-15T10:56:35;6.58;;;6.58;;
50417;SDS011;36346;48.280;14.292;2022-10-15T10:59:14;6.16;;;6.16;;
50417;SDS011;36346;48.280;14.292;2022-10-15T11:01:54;5.92;;;5.92;;
50417;SDS011;36346;48.280;14.292;2022-10-15T11:04:29;6.61;;;6.61;;
50417;SDS011;36346;48.280;14.292;2022-10-15T11:07:03;6.72;;;6.72;;
50417;SDS011;36346;48.280;14.292;2022-10-15T11:18:08;5.86;;;5.86;;
50417;SDS011;36346;48.280;14.292;2022-10-15T11:32:45;8.99;;;8.99;;
50417;SDS011;36346;48.280;14.292;2022-10-15T11:55:26;5.81;;;5.81;;
50417;SDS011;36346;48.280;14.292;2022-10-15T11:58:42;5.85;;;5.85;;
50417;SDS011;36346;48.280;14.292;2022-10-15T12:01:32;5.15;;;5.15;;
50417;SDS011;36346;48.280;14.292;2022-10-15T12:04:29;5.07;;;5.07;;
50417;SDS011;36346;48.280;14.292;2022-10-15T12:07:04;4.36;;;4.36;;
50417;SDS011;36346;48.280;14.292;2022-10-15T12:09:35;4.95;;;4.95;;
50417;SDS011;36346;48.280;14.292;2022-10-15T12:17:50;6.95;;;6.93;;
50417;SDS011;36346;48.280;14.292;2022-10-15T12:20:25;6.41;;;6.40;;
50417;SDS011;36346;48.280;14.292;2022-10-15T12:22:59;6.05;;;6.05;;
50417;SDS011;36346;48.280;14.292;2022-10-15T12:28:03;6.02;;;6.02;;
50417;SDS011;36346;48.280;14.292;2022-10-15T12:31:20;6.40;;;6.40;;
50417;SDS011;36346;48.280;14.292;2022-10-15T12:33:52;5.97;;;5.97;;
50417;SDS011;36346;48.280;14.292;2022-10-15T12:36:27;5.52;;;5.52;;
50417;SDS011;36346;48.280;14.292;2022-10-15T12:39:23;4.80;;;4.80;;
50417;SDS011;36346;48.280;14.292;2022-10-15T12:45:03;5.00;;;5.00;;
50417;SDS011;36346;48.280;14.292;2022-10-15T12:50:27;5.13;;;5.13;;
50417;SDS011;36346;48.280;14.292;2022-10-15T12:53:00;5.10;;;5.10;;
50417;SDS011;36346;48.280;14.292;2022-10-15T12:55:38;4.91;;;4.91;;
50417;SDS011;36346;48.280;14.292;2022-10-15T13:14:36;4.94;;;4.93;;
50417;SDS011;36346;48.280;14.292;2022-10-15T13:17:13;5.31;;;5.31;;
50417;SDS011;36346;48.280;14.292;2022-10-15T13:19:47;5.18;;;5.18;;
50417;SDS011;36346;48.280;14.292;2022-10-15T13:22:23;5.05;;;5.05;;
50417;SDS011;36346;48.280;14.292;2022-10-15T13:24:53;4.61;;;4.61;;
50417;SDS011;36346;48.280;14.292;2022-10-15T13:30:34;4.62;;;4.62;;
50417;SDS011;36346;48.280;14.292;2022-10-15T13:32:54;4.12;;;4.12;;
50417;SDS011;36346;48.280;14.292;2022-10-15T13:35:24;4.37;;;4.37;;
50417;SDS011;36346;48.280;14.292;2022-10-15T13:37:56;4.56;;;4.56;;
50417;SDS011;36346;48.280;14.292;2022-10-15T13:40:25;4.33;;;4.33;;
50417;SDS011;36346;48.280;14.292;2022-10-15T13:43:15;4.48;;;4.48;;
50417;SDS011;36346;48.280;14.292;2022-10-15T13:45:54;5.01;;;5.01;;
50417;SDS011;36346;48.280;14.292;2022-10-15T13:48:25;4.81;;;4.81;;
50417;SDS011;36346;48.280;14.292;2022-10-15T13:50:59;4.86;;;4.84;;
50417;SDS011;36346;48.280;14.292;2022-10-15T13:53:29;4.52;;;4.52;;
50417;SDS011;36346;48.280;14.292;2022-10-15T13:56:00;4.61;;;4.61;;
50417;SDS011;36346;48.280;14.292;2022-10-15T13:58:35;4.29;;;4.28;;
50417;SDS011;36346;48.280;14.292;2022-10-15T14:01:08;4.48;;;4.48;;
50417;SDS011;36346;48.280;14.292;2022-10-15T14:03:49;5.09;;;5.09;;
50417;SDS011;36346;48.280;14.292;2022-10-15T14:06:23;5.27;;;5.27;;
50417;SDS011;36346;48.280;14.292;2022-10-15T14:09:00;5.24;;;5.23;;
50417;SDS011;36346;48.280;14.292;2022-10-15T14:11:53;5.26;;;5.25;;
50417;SDS011;36346;48.280;14.292;2022-10-15T14:14:34;4.89;;;4.89;;
50417;SDS011;36346;48.280;14.292;2022-10-15T14:17:07;5.27;;;5.27;;
50417;SDS011;36346;48.280;14.292;2022-10-15T14:19:59;4.71;;;4.71;;
50417;SDS011;36346;48.280;14.292;2022-10-15T14:22:51;5.05;;;5.05;;
50417;SDS011;36346;48.280;14.292;2022-10-15T14:25:22;5.85;;;5.85;;
50417;SDS011;36346;48.280;14.292;2022-10-15T14:27:52;6.21;;;6.19;;
50417;SDS011;36346;48.280;14.292;2022-10-15T14:30:29;6.76;;;6.72;;
50417;SDS011;36346;48.280;14.292;2022-10-15T14:32:59;6.86;;;6.85;;
50417;SDS011;36346;48.280;14.292;2022-10-15T14:35:34;7.40;;;7.39;;
50417;SDS011;36346;48.280;14.292;2022-10-15T14:40:37;7.05;;;7.04;;
50417;SDS011;36346;48.280;14.292;2022-10-15T14:43:15;7.25;;;7.25;;
50417;SDS011;36346;48.280;14.292;2022-10-15T14:48:20;7.09;;;7.09;;
50417;SDS011;36346;48.280;14.292;2022-10-15T14:50:51;7.45;;;7.43;;
50417;SDS011;36346;48.280;14.292;2022-10-15T14:53:28;7.00;;;7.00;;
50417;SDS011;36346;48.280;14.292;2022-10-15T14:56:09;7.17;;;7.17;;
50417;SDS011;36346;48.280;14.292;2022-10-15T14:58:53;7.18;;;7.18;;
50417;SDS011;36346;48.280;14.292;2022-10-15T15:01:23;7.42;;;7.40;;
50417;SDS011;36346;48.280;14.292;2022-10-15T15:03:53;7.04;;;7.04;;
50417;SDS011;36346;48.280;14.292;2022-10-15T15:06:23;7.00;;;6.96;;
50417;SDS011;36346;48.280;14.292;2022-10-15T15:08:51;7.45;;;7.39;;
50417;SDS011;36346;48.280;14.292;2022-10-15T15:11:20;7.57;;;7.57;;
50417;SDS011;36346;48.280;14.292;2022-10-15T15:13:51;7.34;;;7.34;;
50417;SDS011;36346;48.280;14.292;2022-10-15T15:16:20;7.11;;;7.11;;
50417;SDS011;36346;48.280;14.292;2022-10-15T15:18:48;7.41;;;7.41;;
50417;SDS011;36346;48.280;14.292;2022-10-15T15:21:19;7.71;;;7.71;;
50417;SDS011;36346;48.280;14.292;2022-10-15T15:23:49;7.97;;;7.97;;
50417;SDS011;36346;48.280;14.292;2022-10-15T15:26:17;7.30;;;7.30;;
50417;SDS011;36346;48.280;14.292;2022-10-15T15:28:45;7.84;;;7.84;;
50417;SDS011;36346;48.280;14.292;2022-10-15T15:31:15;8.04;;;8.04;;
50417;SDS011;36346;48.280;14.292;2022-10-15T15:33:44;8.53;;;8.51;;
50417;SDS011;36346;48.280;14.292;2022-10-15T15:36:13;9.41;;;9.41;;
50417;SDS011;36346;48.280;14.292;2022-10-15T15:38:50;8.84;;;8.84;;
50417;SDS011;36346;48.280;14.292;2022-10-15T15:41:19;9.12;;;9.12;;
50417;SDS011;36346;48.280;14.292;2022-10-15T15:43:49;8.74;;;8.74;;
50417;SDS011;36346;48.280;14.292;2022-10-15T15:46:17;9.84;;;9.84;;
50417;SDS011;36346;48.280;14.292;2022-10-15T15:48:45;10.82;;;10.81;;
50417;SDS011;36346;48.280;14.292;2022-10-15T15:51:20;12.07;;;12.06;;
50417;SDS011;36346;48.280;14.292;2022-10-15T15:53:51;12.19;;;12.19;;
50417;SDS011;36346;48.280;14.292;2022-10-15T15:56:19;14.00;;;13.96;;
50417;SDS011;36346;48.280;14.292;2022-10-15T15:58:47;13.26;;;13.23;;
50417;SDS011;36346;48.280;14.292;2022-10-15T16:01:19;13.02;;;12.96;;
50417;SDS011;36346;48.280;14.292;2022-10-15T16:03:47;12.83;;;12.81;;
50417;SDS011;36346;48.280;14.292;2022-10-15T16:06:15;12.18;;;12.17;;
50417;SDS011;36346;48.280;14.292;2022-10-15T16:08:43;11.45;;;11.42;;
50417;SDS011;36346;48.280;14.292;2022-10-15T16:11:12;10.25;;;10.24;;
50417;SDS011;36346;48.280;14.292;2022-10-15T16:13:40;9.10;;;9.09;;
50417;SDS011;36346;48.280;14.292;2022-10-15T16:16:10;8.72;;;8.72;;
50417;SDS011;36346;48.280;14.292;2022-10-15T16:18:39;7.26;;;7.26;;
50417;SDS011;36346;48.280;14.292;2022-10-15T16:21:07;7.45;;;7.45;;
50417;SDS011;36346;48.280;14.292;2022-10-15T16:23:35;7.01;;;7.01;;
50417;SDS011;36346;48.280;14.292;2022-10-15T16:26:03;7.33;;;7.33;;
50417;SDS011;36346;48.280;14.292;2022-10-15T16:28:31;7.09;;;7.09;;
50417;SDS011;36346;48.280;14.292;2022-10-15T16:33:43;7.37;;;7.35;;
50417;SDS011;36346;48.280;14.292;2022-10-15T16:36:11;7.28;;;7.27;;
50417;SDS011;36346;48.280;14.292;2022-10-15T16:38:39;7.60;;;7.60;;
50417;SDS011;36346;48.280;14.292;2022-10-15T16:41:08;7.91;;;7.91;;
50417;SDS011;36346;48.280;14.292;2022-10-15T16:43:37;8.82;;;8.82;;
50417;SDS011;36346;48.280;14.292;2022-10-15T16:46:05;9.74;;;9.74;;
50417;SDS011;36346;48.280;14.292;2022-10-15T16:48:33;9.49;;;9.49;;
50417;SDS011;36346;48.280;14.292;2022-10-15T16:51:03;9.49;;;9.49;;
50417;SDS011;36346;48.280;14.292;2022-10-15T16:53:34;11.02;;;11.01;;
50417;SDS011;36346;48.280;14.292;2022-10-15T16:56:04;11.34;;;11.34;;
50417;SDS011;36346;48.280;14.292;2022-10-15T16:58:34;12.90;;;12.90;;
50417;SDS011;36346;48.280;14.292;2022-10-15T17:01:04;12.76;;;12.76;;
50417;SDS011;36346;48.280;14.292;2022-10-15T17:03:44;12.72;;;12.72;;
50417;SDS011;36346;48.280;14.292;2022-10-15T17:06:13;12.31;;;12.31;;
50417;SDS011;36346;48.280;14.292;2022-10-15T17:11:14;16.40;;;16.40;;
50417;SDS011;36346;48.280;14.292;2022-10-15T17:13:44;27.92;;;27.87;;
50417;SDS011;36346;48.280;14.292;2022-10-15T17:16:14;28.67;;;28.62;;
50417;SDS011;36346;48.280;14.292;2022-10-15T17:18:45;17.32;;;17.31;;
50417;SDS011;36346;48.280;14.292;2022-10-15T17:21:15;14.95;;;14.93;;
50417;SDS011;36346;48.280;14.292;2022-10-15T17:23:45;14.77;;;14.77;;
50417;SDS011;36346;48.280;14.292;2022-10-15T17:26:15;14.56;;;14.56;;
50417;SDS011;36346;48.280;14.292;2022-10-15T17:28:45;14.35;;;14.35;;